Time;durP1;ratioP1;P1;durP2;ratioP2;P2;SDS_P1;SDS_P2;PMS_P1;PMS_P2;Temp;Humidity;BMP_temperature;BMP_pressure;BME280_temperature;BME280_humidity;BME280_pressure;Samples;Min_cycle;Max_cycle;Signal;HPM_P1;HPM_P2
2023/12/19 00:01:38;;;;;;;30.15;17.38;;;;;;;8.50;84.93;102291.03;7421727;19;20050;-61
2023/12/19 00:04:06;;;;;;;30.30;17.40;;;;;;;8.47;85.30;102259.47;7424671;19;20038;-60
2023/12/19 00:06:34;;;;;;;30.98;17.42;;;;;;;8.42;85.39;102275.50;7425000;19;20018;-61
2023/12/19 00:09:02;;;;;;;27.70;16.65;;;;;;;8.46;85.50;102292.91;7424907;19;20050;-60
2023/12/19 00:11:30;;;;;;;27.02;16.55;;;;;;;8.48;85.17;102277.91;7421875;19;20018;-61
2023/12/19 00:13:58;;;;;;;29.90;16.88;;;;;;;8.57;85.25;102281.06;7424708;19;20104;-61
2023/12/19 00:16:28;;;;;;;27.00;16.33;;;;;;;8.52;85.20;102261.00;7424558;19;20051;-62
2023/12/19 00:18:56;;;;;;;26.52;15.70;;;;;;;8.58;85.25;102274.88;7422326;19;20018;-61
2023/12/19 00:21:24;;;;;;;27.25;16.42;;;;;;;8.46;85.49;102290.28;7420284;19;20014;-62
2023/12/19 00:23:52;;;;;;;24.83;15.13;;;;;;;8.52;85.58;102286.56;7424819;19;20014;-63
2023/12/19 00:26:21;;;;;;;28.08;16.15;;;;;;;8.58;84.92;102296.84;7424238;19;20074;-62
2023/12/19 00:28:49;;;;;;;23.88;14.77;;;;;;;8.66;84.76;102296.53;7424901;19;20018;-62
2023/12/19 00:31:19;;;;;;;28.00;15.68;;;;;;;8.60;84.76;102281.81;7420968;19;20019;-62
2023/12/19 00:33:47;;;;;;;23.42;15.18;;;;;;;8.52;85.11;102282.13;7423931;19;20018;-62
2023/12/19 00:36:22;;;;;;;26.25;15.18;;;;;;;8.68;84.63;102270.94;7423836;19;20598;-62
2023/12/19 00:38:51;;;;;;;25.55;14.77;;;;;;;8.69;84.65;102251.53;7422502;19;20014;-62
2023/12/19 00:41:19;;;;;;;23.92;15.32;;;;;;;8.60;84.75;102254.56;7420845;19;20382;-64
2023/12/19 00:43:46;;;;;;;24.63;14.32;;;;;;;8.50;85.08;102268.13;7423327;19;20014;-62
2023/12/19 00:46:14;;;;;;;25.42;13.88;;;;;;;8.46;85.54;102247.19;7424194;19;20100;-62
2023/12/19 00:48:42;;;;;;;25.60;14.45;;;;;;;8.55;85.34;102249.47;7419205;19;20018;-61
2023/12/19 00:51:10;;;;;;;22.50;13.98;;;;;;;8.50;85.62;102259.34;7392252;19;20019;-62
2023/12/19 00:53:40;;;;;;;23.50;13.85;;;;;;;8.52;85.29;102257.50;7395547;19;20744;-62
2023/12/19 00:56:11;;;;;;;24.05;14.43;;;;;;;8.58;85.09;102259.88;7394378;19;20039;-62
2023/12/19 00:58:40;;;;;;;25.27;13.43;;;;;;;8.59;84.80;102263.41;7393504;19;20014;-62
2023/12/19 01:01:08;;;;;;;23.70;13.82;;;;;;;8.59;84.73;102263.41;7392184;19;20015;-63
2023/12/19 01:03:37;;;;;;;23.13;13.45;;;;;;;8.59;84.95;102250.22;7394573;19;20492;-61
2023/12/19 01:06:05;;;;;;;20.52;11.95;;;;;;;8.47;85.10;102259.47;7394658;19;20134;-61
2023/12/19 01:08:34;;;;;;;21.13;12.88;;;;;;;8.43;85.24;102256.13;7396245;19;20090;-61
2023/12/19 01:11:02;;;;;;;21.67;13.10;;;;;;;8.39;85.59;102251.84;7391857;19;20014;-62
2023/12/19 01:13:30;;;;;;;22.70;12.05;;;;;;;8.54;85.47;102258.28;7394251;19;20039;-62
2023/12/19 01:15:58;;;;;;;21.40;12.73;;;;;;;8.50;84.85;102257.56;7394099;19;20396;-61
2023/12/19 01:18:26;;;;;;;18.00;11.02;;;;;;;8.43;84.93;102258.75;7391972;19;20033;-61
2023/12/19 01:20:54;;;;;;;19.33;12.50;;;;;;;8.38;84.93;102241.38;7391301;19;20014;-62
2023/12/19 01:23:23;;;;;;;20.63;12.60;;;;;;;8.42;84.92;102241.16;7393364;19;20035;-62
2023/12/19 01:25:51;;;;;;;21.08;13.20;;;;;;;8.44;84.79;102243.78;7393600;19;20747;-61
2023/12/19 01:28:19;;;;;;;20.60;11.82;;;;;;;8.46;85.05;102241.91;7394587;19;20036;-62
2023/12/19 01:30:47;;;;;;;20.15;12.45;;;;;;;8.49;84.52;102221.53;7391189;19;20086;-62
2023/12/19 01:33:14;;;;;;;20.10;12.27;;;;;;;8.43;84.76;102198.03;7392873;19;20085;-62
2023/12/19 01:35:43;;;;;;;19.10;11.30;;;;;;;8.41;85.09;102207.78;7391701;19;20011;-62
2023/12/19 01:38:10;;;;;;;18.83;11.43;;;;;;;8.30;85.69;102220.53;7392642;19;20022;-62
2023/12/19 01:40:38;;;;;;;19.92;12.02;;;;;;;8.33;85.48;102204.56;7391398;19;20033;-62
2023/12/19 01:43:20;;;;;;;17.02;10.48;;;;;;;8.36;85.27;102215.00;7393056;19;20022;-61
2023/12/19 01:45:49;;;;;;;17.85;10.70;;;;;;;8.44;85.38;102212.09;7391847;19;20049;-62
2023/12/19 01:48:19;;;;;;;17.33;10.50;;;;;;;8.39;85.42;102217.53;7393390;19;20026;-61
2023/12/19 01:50:47;;;;;;;19.30;11.13;;;;;;;8.37;85.64;102202.66;7390888;19;20010;-61
2023/12/19 01:53:17;;;;;;;18.40;11.02;;;;;;;8.38;85.37;102196.50;7392820;19;20014;-61
2023/12/19 01:55:45;;;;;;;17.35;10.40;;;;;;;8.42;85.35;102204.22;7393175;19;20023;-61
2023/12/19 01:58:14;;;;;;;17.08;10.50;;;;;;;8.42;85.29;102206.00;7390623;19;20018;-61
2023/12/19 02:00:42;;;;;;;15.57;10.18;;;;;;;8.42;85.60;102217.41;7391732;19;20041;-61
2023/12/19 02:03:10;;;;;;;16.55;10.07;;;;;;;8.37;85.73;102229.94;7392824;19;20015;-62
2023/12/19 02:05:43;;;;;;;17.35;10.75;;;;;;;8.37;85.81;102219.41;7389317;19;20371;-62
2023/12/19 02:08:11;;;;;;;16.73;10.07;;;;;;;8.29;85.83;102221.47;7389978;19;20018;-62
2023/12/19 02:10:39;;;;;;;15.68;9.43;;;;;;;8.25;86.34;102225.16;7391660;19;20019;-62
2023/12/19 02:13:07;;;;;;;16.58;9.32;;;;;;;8.28;86.12;102215.31;7391768;19;20033;-62
2023/12/19 02:15:35;;;;;;;16.33;10.40;;;;;;;8.31;86.04;102206.41;7391443;19;20018;-61
2023/12/19 02:18:20;;;;;;;17.33;9.98;;;;;;;8.42;85.36;102211.28;7392882;19;20015;-61
2023/12/19 02:20:49;;;;;;;16.65;9.93;;;;;;;8.34;85.92;102206.28;7391269;19;20023;-60
2023/12/19 02:23:16;;;;;;;17.42;9.40;;;;;;;8.34;85.78;102203.66;7392460;19;20086;-61
2023/12/19 02:25:46;;;;;;;15.30;8.80;;;;;;;8.27;86.20;102192.47;7392131;19;20022;-61
2023/12/19 02:28:14;;;;;;;15.95;9.63;;;;;;;8.31;86.48;102188.78;7392887;19;20026;-61
2023/12/19 02:30:42;;;;;;;16.17;9.15;;;;;;;8.36;86.33;102185.97;7391719;19;20054;-61
2023/12/19 02:33:11;;;;;;;15.32;9.05;;;;;;;8.27;86.00;102174.00;7393018;19;20090;-61
2023/12/19 02:35:39;;;;;;;14.20;8.48;;;;;;;8.28;86.58;102170.47;7392497;19;20018;-59
2023/12/19 02:38:07;;;;;;;14.35;8.60;;;;;;;8.38;86.52;102178.03;7392462;19;20015;-61
2023/12/19 02:40:35;;;;;;;16.20;8.88;;;;;;;8.34;85.98;102182.53;7391837;19;20026;-61
2023/12/19 02:43:03;;;;;;;14.60;8.68;;;;;;;8.34;86.16;102164.06;7391249;19;20019;-61
2023/12/19 02:45:31;;;;;;;15.40;9.13;;;;;;;8.24;86.50;102155.69;7392624;19;20014;-61
2023/12/19 02:48:00;;;;;;;15.13;8.80;;;;;;;8.27;86.24;102147.59;7393948;19;20019;-61
2023/12/19 02:50:29;;;;;;;13.63;7.82;;;;;;;8.26;86.33;102156.44;7390788;19;20022;-61
2023/12/19 02:52:56;;;;;;;15.35;8.00;;;;;;;8.32;86.55;102142.16;7391476;19;20023;-60
2023/12/19 02:55:24;;;;;;;12.65;7.70;;;;;;;8.36;86.13;102159.59;7391178;19;20018;-61
2023/12/19 02:57:52;;;;;;;14.43;8.05;;;;;;;8.29;86.42;102140.50;7391907;19;20011;-61
2023/12/19 03:00:20;;;;;;;12.77;7.20;;;;;;;8.29;86.24;102137.88;7389463;19;20502;-61
2023/12/19 03:02:48;;;;;;;13.10;7.57;;;;;;;8.33;86.19;102129.81;7391644;19;20032;-61
2023/12/19 03:05:18;;;;;;;14.57;8.27;;;;;;;8.37;85.71;102134.03;7390409;19;20475;-61
2023/12/19 03:07:46;;;;;;;12.93;8.20;;;;;;;8.38;86.20;102125.22;7390201;19;20018;-60
2023/12/19 03:10:14;;;;;;;15.77;8.52;;;;;;;8.35;85.84;102123.53;7387788;19;20042;-61
2023/12/19 03:12:42;;;;;;;14.52;8.13;;;;;;;8.22;86.45;102103.88;7391534;19;20133;-61
2023/12/19 03:15:10;;;;;;;15.02;8.95;;;;;;;8.19;86.27;102099.56;7389830;19;20018;-61
2023/12/19 03:17:38;;;;;;;15.18;9.20;;;;;;;8.29;86.12;102100.06;7391782;19;20030;-61
2023/12/19 03:20:08;;;;;;;15.10;9.10;;;;;;;8.25;86.33;102109.03;7389823;19;20011;-61
2023/12/19 03:22:35;;;;;;;15.15;9.13;;;;;;;8.24;86.65;102107.28;7389517;19;20019;-61
2023/12/19 03:25:03;;;;;;;17.33;9.63;;;;;;;8.25;86.48;102115.16;7390795;19;20022;-61
2023/12/19 03:27:31;;;;;;;16.17;9.00;;;;;;;8.28;86.02;102109.75;7390871;19;20049;-61
2023/12/19 03:29:59;;;;;;;17.88;9.65;;;;;;;8.26;86.25;102103.69;7390461;19;20082;-61
2023/12/19 03:32:28;;;;;;;15.57;9.57;;;;;;;8.29;86.60;102106.19;7390268;19;20031;-61
2023/12/19 03:34:56;;;;;;;17.98;9.60;;;;;;;8.31;86.39;102106.13;7390622;19;20015;-61
2023/12/19 03:37:24;;;;;;;17.15;10.68;;;;;;;8.28;86.37;102090.44;7390073;19;20018;-60
2023/12/19 03:39:52;;;;;;;17.05;9.80;;;;;;;8.33;86.02;102090.22;7387052;19;20026;-61
2023/12/19 03:42:20;;;;;;;16.88;10.48;;;;;;;8.31;86.09;102098.19;7389572;19;20014;-61
2023/12/19 03:44:48;;;;;;;16.58;10.25;;;;;;;8.35;86.29;102104.19;7390294;19;20117;-60
2023/12/19 03:47:16;;;;;;;18.08;9.82;;;;;;;8.31;86.18;102101.69;7389617;19;20011;-61
2023/12/19 03:49:44;;;;;;;15.27;9.70;;;;;;;8.34;85.98;102092.78;7389617;19;20464;-60
2023/12/19 03:52:12;;;;;;;16.63;9.65;;;;;;;8.30;85.96;102088.56;7387588;19;20014;-61
2023/12/19 03:54:40;;;;;;;16.85;10.30;;;;;;;8.30;85.91;102080.66;7390454;19;20011;-61
2023/12/19 03:57:07;;;;;;;16.88;9.90;;;;;;;8.13;86.68;102072.56;7388608;19;20026;-60
2023/12/19 03:59:35;;;;;;;16.75;9.55;;;;;;;8.12;86.70;102060.31;7388561;19;20026;-61
2023/12/19 04:02:03;;;;;;;16.40;9.68;;;;;;;8.27;86.49;102060.53;7388119;19;20039;-61
2023/12/19 04:04:31;;;;;;;15.68;8.85;;;;;;;8.22;86.37;102045.81;7386664;19;20029;-61
2023/12/19 04:06:59;;;;;;;14.32;9.18;;;;;;;8.17;86.84;102043.38;7385966;19;20019;-59
2023/12/19 04:09:27;;;;;;;13.57;7.95;;;;;;;8.17;86.59;102053.09;7388998;19;20014;-61
2023/12/19 04:11:55;;;;;;;13.82;8.68;;;;;;;8.24;86.21;102049.25;7386905;19;20030;-61
2023/12/19 04:14:23;;;;;;;14.77;8.90;;;;;;;8.28;86.23;102051.69;7385907;19;20029;-60
2023/12/19 04:16:51;;;;;;;11.65;6.97;;;;;;;8.21;86.13;102050.25;7389333;19;20043;-61
2023/12/19 04:19:21;;;;;;;11.50;6.80;;;;;;;8.26;85.93;102037.69;7388503;19;20018;-61
2023/12/19 04:21:50;;;;;;;13.10;7.10;;;;;;;8.35;85.87;102033.78;7384929;19;20022;-61
2023/12/19 04:24:21;;;;;;;11.85;6.63;;;;;;;8.23;85.74;102032.56;7390277;19;20046;-61
2023/12/19 04:26:49;;;;;;;11.20;6.60;;;;;;;8.17;86.30;102027.56;7396481;19;20034;-59
2023/12/19 04:29:17;;;;;;;10.27;6.30;;;;;;;8.32;86.04;102033.94;7395116;19;20011;-61
2023/12/19 04:31:45;;;;;;;11.45;6.05;;;;;;;8.31;85.62;102033.06;7393389;19;20015;-61
2023/12/19 04:34:13;;;;;;;9.00;5.43;;;;;;;8.22;85.90;102024.72;7395459;19;20377;-61
2023/12/19 04:36:41;;;;;;;10.38;5.90;;;;;;;8.20;85.83;102006.28;7394058;19;20039;-61
2023/12/19 04:39:09;;;;;;;9.38;5.25;;;;;;;8.17;86.14;102008.22;7394745;19;20488;-60
2023/12/19 04:41:38;;;;;;;8.82;5.28;;;;;;;8.20;86.37;102018.63;7392154;19;20035;-60
2023/12/19 04:44:06;;;;;;;9.00;5.18;;;;;;;8.12;86.54;102007.56;7395273;19;20089;-61
2023/12/19 04:46:34;;;;;;;10.07;5.63;;;;;;;8.18;86.01;102012.56;7395615;19;20100;-61
2023/12/19 04:49:02;;;;;;;7.70;4.65;;;;;;;8.12;86.02;102004.91;7394760;19;20094;-61
2023/12/19 04:51:30;;;;;;;7.63;4.65;;;;;;;8.19;86.41;102001.94;7392079;19;20022;-61
2023/12/19 04:53:59;;;;;;;7.20;4.15;;;;;;;8.20;85.92;101997.53;7394722;19;20021;-60
2023/12/19 04:56:27;;;;;;;9.65;4.35;;;;;;;8.26;85.57;101987.56;7395097;19;20027;-61
2023/12/19 04:58:55;;;;;;;8.10;3.75;;;;;;;8.20;85.54;101984.31;7393410;19;20019;-61
2023/12/19 05:01:23;;;;;;;6.90;3.70;;;;;;;8.21;85.49;101964.97;7390425;19;20015;-60
2023/12/19 05:03:51;;;;;;;6.00;3.40;;;;;;;8.26;85.18;101969.09;7394570;19;20014;-61
2023/12/19 05:06:19;;;;;;;6.90;3.67;;;;;;;8.25;85.38;101954.19;7394265;19;20065;-61
2023/12/19 05:08:48;;;;;;;5.63;3.33;;;;;;;8.35;85.08;101962.53;7394185;19;20042;-61
2023/12/19 05:11:16;;;;;;;6.60;3.40;;;;;;;8.29;84.72;101976.88;7391983;19;20018;-61
2023/12/19 05:13:44;;;;;;;5.97;3.30;;;;;;;8.14;85.26;101997.81;7394750;19;20484;-61
2023/12/19 05:16:16;;;;;;;5.63;2.60;;;;;;;8.15;85.26;101981.03;7393597;19;20494;-61
2023/12/19 05:18:44;;;;;;;5.13;2.75;;;;;;;8.10;85.68;101978.63;7393604;19;20493;-61
2023/12/19 05:21:13;;;;;;;5.07;2.97;;;;;;;8.17;85.35;101977.44;7391118;19;20090;-61
2023/12/19 05:23:42;;;;;;;5.90;2.95;;;;;;;8.28;85.03;101977.81;7394271;19;20050;-61
2023/12/19 05:26:10;;;;;;;4.57;2.60;;;;;;;8.23;84.90;101973.66;7394195;19;20026;-61
2023/12/19 05:28:39;;;;;;;5.57;3.25;;;;;;;8.20;85.18;101973.78;7393777;19;20501;-61
2023/12/19 05:31:09;;;;;;;5.35;2.95;;;;;;;8.24;85.45;101975.34;7391223;19;20015;-61
2023/12/19 05:33:37;;;;;;;4.88;2.67;;;;;;;8.23;84.95;101971.00;7392088;19;20018;-62
2023/12/19 05:36:05;;;;;;;4.68;2.70;;;;;;;8.18;84.80;101965.09;7391344;19;20385;-61
2023/12/19 05:38:33;;;;;;;4.78;2.80;;;;;;;8.19;85.30;101961.50;7391633;19;20029;-62
2023/12/19 05:41:02;;;;;;;5.28;3.00;;;;;;;8.27;85.21;101965.50;7391067;19;20046;-61
2023/12/19 05:43:30;;;;;;;5.25;3.10;;;;;;;8.14;85.71;101959.09;7393275;19;20018;-61
2023/12/19 05:45:59;;;;;;;5.38;3.05;;;;;;;8.21;85.30;101959.69;7391382;19;20027;-61
2023/12/19 05:48:28;;;;;;;5.30;2.90;;;;;;;8.24;85.17;101968.31;7395607;19;20014;-62
2023/12/19 05:50:56;;;;;;;5.45;2.75;;;;;;;8.22;85.14;101962.25;7391558;19;20042;-62
2023/12/19 05:53:24;;;;;;;5.57;2.38;;;;;;;8.14;85.39;101968.78;7392731;19;20011;-62
2023/12/19 05:55:52;;;;;;;5.38;2.80;;;;;;;8.09;85.96;101962.84;7393017;19;20025;-62
2023/12/19 05:58:20;;;;;;;4.75;2.55;;;;;;;8.15;85.83;101955.50;7392966;19;20489;-62
2023/12/19 06:00:48;;;;;;;4.93;2.50;;;;;;;8.12;85.89;101955.63;7390649;19;20014;-62
2023/12/19 06:03:17;;;;;;;4.85;2.38;;;;;;;8.15;86.00;101957.31;7392748;19;20028;-62
2023/12/19 06:05:45;;;;;;;4.68;2.70;;;;;;;8.16;85.94;101965.13;7393164;19;20014;-62
2023/12/19 06:08:13;;;;;;;4.10;2.60;;;;;;;7.99;86.61;101965.88;7392464;19;20026;-62
2023/12/19 06:10:40;;;;;;;5.20;2.88;;;;;;;8.04;86.62;101958.63;7390872;19;20478;-62
2023/12/19 06:13:08;;;;;;;5.43;2.40;;;;;;;8.15;86.17;101954.66;7392161;19;20026;-62
2023/12/19 06:15:36;;;;;;;4.53;2.55;;;;;;;8.18;86.13;101949.25;7390368;19;20367;-62
2023/12/19 06:18:04;;;;;;;3.45;2.05;;;;;;;8.13;86.19;101943.31;7392349;19;20521;-61
2023/12/19 06:20:32;;;;;;;4.70;2.00;;;;;;;8.12;86.22;101946.88;7390284;19;20048;-61
2023/12/19 06:23:00;;;;;;;4.35;2.05;;;;;;;8.17;85.79;101955.47;7392036;19;20034;-61
2023/12/19 06:25:28;;;;;;;3.70;1.80;;;;;;;8.12;86.03;101962.72;7391903;19;20129;-64
2023/12/19 06:27:56;;;;;;;3.78;2.00;;;;;;;8.15;86.30;101944.97;7392231;19;20532;-64
2023/12/19 06:30:24;;;;;;;2.80;1.80;;;;;;;8.12;86.00;101941.59;7391231;19;20034;-64
2023/12/19 06:32:58;;;;;;;3.67;2.03;;;;;;;8.07;86.47;101955.00;7391979;19;20048;-64
2023/12/19 06:35:29;;;;;;;3.17;1.52;;;;;;;8.08;86.25;101943.50;7391637;19;20371;-63
2023/12/19 06:37:57;;;;;;;2.30;1.50;;;;;;;8.15;86.01;101950.22;7391452;19;20025;-63
2023/12/19 06:40:25;;;;;;;3.35;1.88;;;;;;;8.10;86.00;101952.22;7390170;19;20346;-63
2023/12/19 06:42:53;;;;;;;3.83;1.67;;;;;;;8.09;86.16;101944.38;7391541;19;20025;-63
2023/12/19 06:45:22;;;;;;;4.07;1.50;;;;;;;8.11;85.84;101953.94;7391024;19;20042;-62
2023/12/19 06:47:50;;;;;;;3.50;1.50;;;;;;;8.02;86.38;101949.94;7388462;19;20018;-63
2023/12/19 06:50:18;;;;;;;3.30;1.40;;;;;;;8.04;86.04;101948.06;7388150;19;20033;-63
2023/12/19 06:52:46;;;;;;;2.35;1.48;;;;;;;8.05;86.26;101949.81;7391129;19;20018;-62
2023/12/19 06:55:14;;;;;;;2.20;1.35;;;;;;;8.03;86.34;101932.31;7390751;19;20385;-61
2023/12/19 06:57:42;;;;;;;2.38;1.40;;;;;;;8.17;85.69;101927.28;7390957;19;20011;-62
2023/12/19 07:00:11;;;;;;;3.55;1.63;;;;;;;8.15;85.61;101917.72;7389348;19;20015;-63
2023/12/19 07:02:39;;;;;;;1.75;1.13;;;;;;;8.02;85.99;101912.16;7388135;19;20021;-63
2023/12/19 07:05:08;;;;;;;2.30;1.30;;;;;;;7.98;86.16;101911.44;7388250;19;20486;-63
2023/12/19 07:07:36;;;;;;;2.30;1.50;;;;;;;8.14;86.04;101910.75;7390350;19;20349;-62
2023/12/19 07:10:04;;;;;;;2.95;1.42;;;;;;;7.98;85.98;101902.66;7389821;19;20042;-62
2023/12/19 07:12:32;;;;;;;3.38;1.30;;;;;;;8.00;85.99;101891.09;7388287;19;20473;-62
2023/12/19 07:15:00;;;;;;;2.65;1.50;;;;;;;7.97;86.20;101893.00;7389752;19;20035;-62
2023/12/19 07:17:28;;;;;;;2.22;1.23;;;;;;;7.91;86.48;101890.66;7391253;19;20030;-63
2023/12/19 07:19:56;;;;;;;3.15;1.58;;;;;;;7.97;86.50;101891.22;7389818;19;20037;-63
2023/12/19 07:22:24;;;;;;;1.95;1.40;;;;;;;7.96;86.66;101881.59;7390239;19;20094;-63
2023/12/19 07:24:52;;;;;;;2.95;1.30;;;;;;;7.98;86.33;101884.19;7391105;19;20043;-62
2023/12/19 07:27:20;;;;;;;3.58;1.55;;;;;;;8.02;86.07;101870.78;7392561;19;20426;-62
2023/12/19 07:29:48;;;;;;;3.05;1.33;;;;;;;8.14;85.90;101873.81;7392050;19;20378;-63
2023/12/19 07:32:17;;;;;;;3.33;1.42;;;;;;;8.13;85.79;101883.50;7391588;19;20018;-63
2023/12/19 07:34:46;;;;;;;3.05;1.17;;;;;;;8.10;85.71;101861.69;7390111;19;20479;-61
2023/12/19 07:37:14;;;;;;;1.95;1.27;;;;;;;8.16;85.73;101861.38;7392971;19;20018;-62
2023/12/19 07:39:42;;;;;;;2.97;1.40;;;;;;;8.13;85.94;101861.50;7391403;19;20010;-62
2023/12/19 07:42:10;;;;;;;2.08;1.23;;;;;;;8.17;85.57;101863.13;7390214;19;20086;-63
2023/12/19 07:44:38;;;;;;;2.03;1.25;;;;;;;8.17;85.60;101853.41;7390093;19;20015;-63
2023/12/19 07:47:07;;;;;;;3.22;1.60;;;;;;;8.09;85.99;101846.75;7388412;19;20033;-63
2023/12/19 07:49:35;;;;;;;3.60;1.60;;;;;;;8.02;86.08;101833.00;7390105;19;20021;-61
2023/12/19 07:52:04;;;;;;;4.40;2.13;;;;;;;8.12;86.08;101838.72;7387282;19;20549;-61
2023/12/19 07:54:31;;;;;;;3.35;1.50;;;;;;;8.05;86.28;101840.75;7389885;19;20047;-60
2023/12/19 07:57:00;;;;;;;2.90;1.52;;;;;;;8.02;86.54;101840.94;7389941;19;20018;-62
2023/12/19 07:59:28;;;;;;;2.50;1.50;;;;;;;8.13;86.16;101845.69;7392361;19;20032;-63
2023/12/19 08:01:56;;;;;;;2.58;1.48;;;;;;;8.00;86.46;101832.22;7395641;19;20046;-63
2023/12/19 08:04:24;;;;;;;3.28;1.55;;;;;;;8.13;86.11;101840.41;7398702;19;20019;-64
2023/12/19 08:06:52;;;;;;;2.95;1.65;;;;;;;8.12;86.23;101830.78;7399303;19;20027;-63
2023/12/19 08:09:20;;;;;;;2.33;1.35;;;;;;;8.10;86.31;101824.75;7397163;19;20014;-64
2023/12/19 08:11:49;;;;;;;2.25;1.30;;;;;;;8.16;85.65;101832.34;7396372;19;20022;-62
2023/12/19 08:14:17;;;;;;;4.80;1.50;;;;;;;8.13;86.05;101829.84;7399026;19;20494;-64
2023/12/19 08:16:44;;;;;;;2.22;1.35;;;;;;;8.29;85.73;101834.38;7395616;19;20023;-63
2023/12/19 08:19:12;;;;;;;2.40;1.60;;;;;;;8.28;85.74;101830.03;7394793;19;20022;-63
2023/12/19 08:22:07;;;;;;;2.65;1.63;;;;;;;8.36;85.20;101832.31;7392803;19;20022;-63
2023/12/19 08:24:34;;;;;;;3.40;1.40;;;;;;;8.21;85.87;101833.03;7395715;19;20036;-65
2023/12/19 08:27:03;;;;;;;2.05;1.38;;;;;;;8.17;86.20;101828.81;7396568;19;20022;-65
2023/12/19 08:29:31;;;;;;;3.45;1.30;;;;;;;8.08;86.60;101827.44;7396752;19;20483;-65
2023/12/19 08:31:59;;;;;;;3.25;1.27;;;;;;;8.09;86.66;101829.19;7394614;19;20018;-66
2023/12/19 08:34:26;;;;;;;3.97;1.40;;;;;;;8.18;86.56;101823.47;7397218;19;20359;-65
2023/12/19 08:36:54;;;;;;;3.20;1.42;;;;;;;8.14;86.50;101826.31;7396681;19;20461;-65
2023/12/19 08:39:22;;;;;;;3.58;1.60;;;;;;;8.19;86.57;101817.25;7396204;19;20404;-65
2023/12/19 08:41:50;;;;;;;4.15;1.40;;;;;;;8.18;86.17;101815.53;7392630;19;20027;-66
2023/12/19 08:44:18;;;;;;;2.50;1.50;;;;;;;8.26;86.01;101815.19;7395203;19;20018;-66
2023/12/19 08:46:46;;;;;;;5.38;1.70;;;;;;;8.24;85.97;101817.03;7395474;19;20019;-66
2023/12/19 08:49:13;;;;;;;4.07;1.25;;;;;;;8.19;86.49;101813.75;7393448;19;20042;-67
2023/12/19 08:51:46;;;;;;;3.17;1.50;;;;;;;8.27;86.09;101807.19;7392165;19;20050;-67
2023/12/19 08:54:14;;;;;;;2.78;1.50;;;;;;;8.26;86.12;101805.47;7395560;19;20018;-67
2023/12/19 08:56:42;;;;;;;4.22;1.45;;;;;;;8.27;86.16;101816.88;7394490;19;20046;-66
2023/12/19 08:59:10;;;;;;;2.08;1.60;;;;;;;8.23;86.01;101810.91;7395952;19;20022;-66
2023/12/19 09:01:40;;;;;;;3.53;1.52;;;;;;;8.19;86.22;101792.66;7392692;19;20054;-65
2023/12/19 09:04:09;;;;;;;2.00;1.42;;;;;;;8.23;86.25;101808.25;7396445;19;20014;-65
2023/12/19 09:06:37;;;;;;;2.80;1.50;;;;;;;8.21;86.09;101804.84;7396170;19;20033;-66
2023/12/19 09:09:05;;;;;;;2.78;1.30;;;;;;;8.19;86.06;101808.47;7394439;19;20018;-66
2023/12/19 09:11:36;;;;;;;1.65;1.30;;;;;;;8.31;86.34;101794.69;7392894;19;20018;-66
2023/12/19 09:14:03;;;;;;;3.83;1.70;;;;;;;8.33;85.96;101798.13;7393797;19;20014;-66
2023/12/19 09:16:32;;;;;;;2.10;1.40;;;;;;;8.38;85.65;101796.16;7395513;19;20127;-68
2023/12/19 09:19:00;;;;;;;3.03;1.50;;;;;;;8.42;85.47;101795.06;7395269;19;20006;-66
2023/12/19 09:21:29;;;;;;;2.38;1.50;;;;;;;8.41;85.81;101785.47;7391944;19;20081;-66
2023/12/19 09:23:57;;;;;;;3.10;1.40;;;;;;;8.42;85.97;101792.44;7394838;19;20090;-67
2023/12/19 09:26:27;;;;;;;4.00;2.13;;;;;;;8.45;85.38;101794.09;7394158;19;20015;-67
2023/12/19 09:28:55;;;;;;;3.45;2.00;;;;;;;8.47;85.63;101787.81;7393823;19;20019;-66
2023/12/19 09:31:23;;;;;;;2.10;1.60;;;;;;;8.58;85.48;101789.06;7392320;19;20030;-66
2023/12/19 09:33:52;;;;;;;2.83;1.73;;;;;;;8.63;85.11;101787.94;7394677;19;20380;-66
2023/12/19 09:36:21;;;;;;;3.13;1.52;;;;;;;8.58;85.27;101789.06;7392565;19;20018;-66
2023/12/19 09:38:50;;;;;;;2.97;1.58;;;;;;;8.49;85.72;101779.81;7393909;19;20015;-64
2023/12/19 09:41:18;;;;;;;2.45;1.60;;;;;;;8.58;85.55;101781.13;7389997;19;20022;-65
2023/12/19 09:43:46;;;;;;;3.10;1.70;;;;;;;8.62;85.59;101782.69;7394588;19;20018;-63
2023/12/19 09:46:15;;;;;;;2.10;1.60;;;;;;;8.65;85.68;101785.19;7392664;19;20018;-62
2023/12/19 09:48:46;;;;;;;2.92;1.50;;;;;;;8.67;85.71;101784.19;7393678;19;20352;-63
2023/12/19 09:51:25;;;;;;;2.38;1.60;;;;;;;8.72;85.45;101773.41;7392010;19;20034;-65
2023/12/19 09:53:54;;;;;;;2.08;1.50;;;;;;;8.59;85.86;101770.53;7393969;19;20041;-64
2023/12/19 09:56:23;;;;;;;2.50;1.50;;;;;;;8.54;85.93;101760.16;7394686;19;20022;-64
2023/12/19 09:58:53;;;;;;;2.83;1.50;;;;;;;8.58;86.18;101766.16;7392665;19;20371;-64
2023/12/19 10:01:21;;;;;;;1.85;1.40;;;;;;;8.60;86.19;101752.91;7390998;19;20047;-65
2023/12/19 10:03:55;;;;;;;3.05;1.40;;;;;;;8.58;86.35;101750.31;7393465;19;20353;-65
2023/12/19 10:06:23;;;;;;;1.92;1.33;;;;;;;8.53;86.51;101747.91;7392243;19;20022;-65
2023/12/19 10:08:54;;;;;;;2.33;1.40;;;;;;;8.60;86.76;101745.81;7393273;19;20042;-65
2023/12/19 10:11:22;;;;;;;2.08;1.20;;;;;;;8.63;86.45;101742.19;7388948;19;20018;-65
2023/12/19 10:13:50;;;;;;;3.50;1.30;;;;;;;8.68;86.26;101738.38;7392599;19;20010;-65
2023/12/19 10:16:32;;;;;;;1.90;1.30;;;;;;;8.75;86.13;101734.50;7393123;19;20027;-65
2023/12/19 10:19:04;;;;;;;1.95;1.20;;;;;;;8.71;86.20;101740.00;7391364;19;20015;-66
2023/12/19 10:21:32;;;;;;;1.48;1.20;;;;;;;8.70;86.45;101728.59;7387384;19;20018;-65
2023/12/19 10:24:09;;;;;;;1.80;1.02;;;;;;;8.66;86.57;101724.41;7390344;19;20037;-62
2023/12/19 10:26:38;;;;;;;4.90;1.40;;;;;;;8.65;86.66;101716.53;7392717;19;20022;-61
2023/12/19 10:29:07;;;;;;;1.42;1.05;;;;;;;8.75;86.34;101717.81;7390462;19;20018;-64
2023/12/19 10:31:34;;;;;;;1.73;1.00;;;;;;;8.66;86.61;101712.97;7390261;19;20054;-64
2023/12/19 10:34:04;;;;;;;1.48;1.05;;;;;;;8.70;86.50;101706.59;7392132;19;20022;-61
2023/12/19 10:36:34;;;;;;;3.03;1.08;;;;;;;8.73;86.19;101688.81;7391998;19;20022;-61
2023/12/19 10:39:05;;;;;;;2.03;1.10;;;;;;;8.76;86.16;101686.03;7390582;19;20471;-62
2023/12/19 10:41:37;;;;;;;1.73;1.00;;;;;;;8.82;86.07;101692.78;7387711;19;20015;-62
2023/12/19 10:44:07;;;;;;;1.35;1.05;;;;;;;8.82;86.43;101678.72;7391504;19;20018;-62
2023/12/19 10:46:36;;;;;;;2.20;1.15;;;;;;;8.84;86.05;101685.63;7391899;19;20030;-62
2023/12/19 10:49:04;;;;;;;2.67;1.00;;;;;;;8.80;86.27;101676.16;7390005;19;20035;-62
2023/12/19 10:51:37;;;;;;;1.50;1.02;;;;;;;8.82;86.38;101669.03;7387397;19;20025;-61
2023/12/19 10:54:13;;;;;;;2.25;1.13;;;;;;;8.88;86.27;101670.47;7389309;19;20010;-61
2023/12/19 10:56:50;;;;;;;1.45;1.10;;;;;;;8.95;85.71;101658.66;7391251;19;20022;-61
2023/12/19 10:59:29;;;;;;;1.42;1.10;;;;;;;8.89;85.90;101657.22;7391180;19;20026;-64
2023/12/19 11:02:03;;;;;;;1.77;1.30;;;;;;;8.88;86.24;101650.19;7387690;19;20377;-66
2023/12/19 11:04:37;;;;;;;1.60;1.17;;;;;;;8.82;86.23;101650.53;7390884;19;20494;-66
2023/12/19 11:07:11;;;;;;;1.80;1.17;;;;;;;8.89;86.20;101659.84;7391178;19;20026;-66
2023/12/19 11:09:43;;;;;;;3.67;1.50;;;;;;;8.78;86.45;101654.28;7390829;19;20323;-67
2023/12/19 11:12:12;;;;;;;4.05;1.35;;;;;;;8.86;86.38;101669.72;7389959;19;20034;-66
2023/12/19 11:14:40;;;;;;;4.45;1.58;;;;;;;8.86;86.20;101652.06;7391087;19;20357;-64
2023/12/19 11:17:26;;;;;;;1.95;1.40;;;;;;;8.91;86.03;101644.75;7390348;19;20010;-65
2023/12/19 11:19:57;;;;;;;3.10;1.80;;;;;;;8.86;85.99;101643.31;7390430;19;20042;-64
2023/12/19 11:22:48;;;;;;;2.88;1.48;;;;;;;8.87;86.30;101659.06;7387528;19;20014;-64
2023/12/19 11:25:31;;;;;;;3.47;1.65;;;;;;;8.88;85.92;101650.19;7389782;19;20613;-63
2023/12/19 11:28:04;;;;;;;2.53;1.67;;;;;;;8.86;86.32;101644.16;7389728;19;20018;-63
2023/12/19 11:30:36;;;;;;;2.77;1.77;;;;;;;8.88;86.18;101639.63;7388753;19;20019;-63
2023/12/19 11:33:07;;;;;;;2.53;1.95;;;;;;;8.89;86.37;101638.72;7388471;19;20029;-63
2023/12/19 11:35:35;;;;;;;2.70;1.70;;;;;;;9.00;85.75;101623.16;7388906;19;20089;-63
2023/12/19 11:38:15;;;;;;;2.92;2.03;;;;;;;9.09;85.58;101624.44;7388646;19;20364;-63